Surface/Precipitation History
01/17/2017 19:15  to  1/18/2017 19:15
Change End Date:
Date/Time
(MST)
Sf
Temp Chem Water Layer Surface Precipitation
Sfc Pvt Sub Frz Factor Pct Dpth DpthThk IcePct Cond Salin FI Type Intens Accum Rate
01/18/2017 19:01 Ice Warning 25.3F - 21F 32F 95 0% - - 98% 1 mhos 111 - None None - -
01/18/2017 18:54 Ice Warning 25.7F - 21F 32F 95 0% - - 98% 1 mhos 109 - None None - -
01/18/2017 18:46 Ice Warning 25.7F - 21F 32F 95 0% - - 98% 1 mhos 107 - None None - -
01/18/2017 18:44 Ice Warning 25.7F - 21F 32F 95 0% - - 98% 1 mhos 105 - None None - -
01/18/2017 18:33 Ice Warning 25.7F - 21F 32F 95 0% - - 98% 1 mhos 100 - None None - -
01/18/2017 18:31 Ice Warning 25.7F - 21F 32F 95 0% - - 98% 1 mhos 100 - None None - -
01/18/2017 18:23 Ice Warning 25.7F - 21F 32F 95 0% - - 99% 1 mhos 97 - None None - -
01/18/2017 18:16 Ice Warning 25.5F - 21F 32F 95 0% - - 99% 1 mhos 96 - None None - -
01/18/2017 18:13 Ice Warning 25.5F - 21F 32F 95 0% - - 99% 1 mhos 94 - None None - -
01/18/2017 18:03 Ice Warning 25.5F - 21F 32F 95 0% - - 99% 1 mhos 92 - None None - -
01/18/2017 18:01 Ice Warning 25.5F - 21F 32F 95 0% - - 99% 1 mhos 89 - None None - -
01/18/2017 17:53 Ice Warning 25.3F - 21F 32F 95 0% - - 99% 1 mhos 87 - None None - -
01/18/2017 17:46 Ice Warning 25.5F - 21F 32F 95 0% - - 99% 1 mhos 85 - None None - -
01/18/2017 17:43 Ice Warning 25.3F - 21F 32F 95 0% - - 99% 1 mhos 83 - None None - -
01/18/2017 17:33 Ice Warning 25.5F - 21F 32F 95 0% - - 99% 1 mhos 78 - None None - -
Date/Time
(MST)
Sf
Temp Chem Water Layer Surface Precipitation
Sfc Pvt Sub Frz Factor Pct Dpth DpthThk IcePct Cond Salin FI Type Intens Accum Rate
01/18/2017 17:31 Ice Warning 25.7F - 21F 32F 95 0% - - 99% 1 mhos 78 - None None - -
01/18/2017 17:23 Ice Warning 25.7F - 20F 32F 95 0% - - 99% 1 mhos 74 - None None - -
01/18/2017 17:16 Ice Warning 25.9F - 20F 32F 95 0% - - 99% 1 mhos 67 - None None - -
01/18/2017 17:13 Ice Warning 26.2F - 20F 32F 95 0% - - 99% 1 mhos 64 - None None - -
01/18/2017 17:03 Ice Warning 26.8F - 20F 32F 95 0% - - 99% 0 mhos 57 - None None - -
01/18/2017 17:01 Ice Warning 26.8F - 20F 32F 95 0% - - 99% 0 mhos 56 - None None - -
01/18/2017 16:53 Ice Warning 27.3F - 20F 32F 95 0% - - 99% 0 mhos 51 - None None - -
01/18/2017 16:46 Ice Warning 28.0F - 20F 32F 95 0% - - 99% 0 mhos 48 - None None - -
01/18/2017 16:43 Ice Warning 28.4F - 20F 32F 95 0% - - 99% 0 mhos 47 - None None - -
01/18/2017 16:33 Ice Warning 29.3F - 20F 32F 95 0% - - 98% 0 mhos 43 - None None - -
01/18/2017 16:31 Ice Warning 29.7F - 20F 32F 95 0% - - 98% 0 mhos 42 - None None - -
01/18/2017 16:23 Ice Warning 30.9F - 20F 32F 95 0% - - 96% 0 mhos 40 - None None - -
01/18/2017 16:16 Wet 32.5F - 20F 32F 95 0% 0.00 in - 0% 0 mhos 39 - None None - -
01/18/2017 16:13 Wet 33.6F - 20F 32F 95 0% 0.00 in - 0% 0 mhos 39 - None None - -
01/18/2017 16:03 Wet 33.6F - 20F 32F 95 0% 0.00 in - 0% 0 mhos 37 - None None - -
Date/Time
(MST)
Sf
Temp Chem Water Layer Surface Precipitation
Sfc Pvt Sub Frz Factor Pct Dpth DpthThk IcePct Cond Salin FI Type Intens Accum Rate
01/18/2017 16:01 Wet 32.7F - 20F 32F 85 0% 0.00 in - 0% 0 mhos 37 - None None - -
01/18/2017 15:53 Wet 32.7F - 20F 32F 60 0% 0.00 in - 0% 0 mhos 36 - None None - -
01/18/2017 15:46 Wet 34.2F - 20F 32F 45 0% 0.00 in - 0% 0 mhos 37 - None None - -
01/18/2017 15:43 Wet 35.8F - 20F 32F 45 0% 0.00 in - 0% 0 mhos 37 - None None - -
01/18/2017 15:33 Wet 37.6F - 20F 32F 60 0% 0.00 in - 0% 0 mhos 39 - None None - -
01/18/2017 15:31 Wet 37.6F - 20F 32F 60 0% 0.00 in - 0% 0 mhos 40 - None None - -
01/18/2017 15:23 Wet 37.4F - 20F 32F 70 0% 0.00 in - 0% 0 mhos 42 - None None - -
01/18/2017 15:16 Wet 36.5F - 20F 32F 35 0% 0.00 in - 0% 0 mhos 45 - None None - -
01/18/2017 15:12 Wet 37.4F - 20F 32F 45 0% 0.00 in - 0% 0 mhos 46 - None None - -
01/18/2017 15:02 Wet 37.8F - 20F 32F 60 0% 0.00 in - 0% 1 mhos 49 - None None - -
01/18/2017 15:01 Wet 37.2F - 20F 32F 75 0% 0.00 in - 0% 1 mhos 50 - None None - -
01/18/2017 14:52 Wet 36.5F - 19F 32F 85 0% 0.00 in - 0% 1 mhos 53 - None None - -
01/18/2017 14:46 Wet 38.1F - 19F 32F 95 0% 0.00 in - 0% 1 mhos 57 - None None - -
01/18/2017 14:42 Wet 37.4F - 19F 32F 95 0% 0.00 in - 0% 1 mhos 59 - None None - -
01/18/2017 14:32 Wet 38.5F - 19F 32F 95 0% 0.00 in - 0% 1 mhos 65 - None None - -
Date/Time
(MST)
Sf
Temp Chem Water Layer Surface Precipitation
Sfc Pvt Sub Frz Factor Pct Dpth DpthThk IcePct Cond Salin FI Type Intens Accum Rate
01/18/2017 14:31 Wet 40.1F - 19F 32F 95 0% 0.00 in - 0% 1 mhos 65 - None None - -
01/18/2017 14:22 Wet 39.0F - 19F 32F 95 0% 0.00 in - 0% 1 mhos 69 - None None - -
01/18/2017 14:16 Wet 39.7F - 19F 32F 95 0% 0.00 in - 0% 1 mhos 72 - None None - -
01/18/2017 14:12 Wet 39.7F - 19F 32F 95 0% 0.00 in - 0% 1 mhos 74 - None None - -
01/18/2017 14:02 Wet 39.7F - 19F 32F 95 0% 0.00 in - 0% 1 mhos 76 - None None - -
01/18/2017 14:01 Wet 39.6F - 19F 32F 95 0% 0.00 in - 0% 1 mhos 76 - None None - -
01/18/2017 13:52 Wet 33.6F - 19F 32F 95 0% 0.00 in - 0% 1 mhos 79 - None None - -
01/18/2017 13:46 Chemically Wet 32.0F - 19F 32F 95 0% 0.00 in - 0% 1 mhos 78 - None None - -
01/18/2017 13:42 Chemically Wet 31.8F - 19F 32F 95 0% - - 45% 1 mhos 78 - None None - -
01/18/2017 13:32 Wet 32.2F - 19F 32F 95 0% 0.00 in - 0% 1 mhos 75 - None None - -
01/18/2017 13:31 Wet 32.2F - 19F 32F 95 0% 0.00 in - 0% 1 mhos 75 - None None - -
01/18/2017 13:22 Wet 32.4F - 19F 32F 95 0% 0.00 in - 0% 1 mhos 72 - None None - -
01/18/2017 13:16 Chemically Wet 31.6F - 19F 32F 95 0% - - 71% 1 mhos 83 - Yes - - -
01/18/2017 13:12 Ice Warning 31.3F - 19F 32F 95 0% - - 92% 1 mhos 60 - Yes - - -
01/18/2017 13:02 Ice Warning 30.0F - 19F 32F 75 0% - - 98% 0 mhos 47 - None None - -
Date/Time
(MST)
Sf
Temp Chem Water Layer Surface Precipitation
Sfc Pvt Sub Frz Factor Pct Dpth DpthThk IcePct Cond Salin FI Type Intens Accum Rate
01/18/2017 13:01 Ice Warning 29.8F - 19F 32F 80 0% - - 98% 0 mhos 47 - None None - -
01/18/2017 12:52 Ice Watch 29.1F - 19F - 70 - - - - 0 mhos 47 - None None - -
01/18/2017 12:46 Ice Watch 28.8F - 19F - 65 - - - - 0 mhos 48 - None None - -
01/18/2017 12:42 Ice Watch 28.9F - 19F - 60 - - - - 0 mhos 48 - None None - -
01/18/2017 12:32 Ice Watch 29.1F - 19F - 60 - - - - 0 mhos 50 - None None - -
01/18/2017 12:31 Ice Watch 29.1F - 19F - 60 - - - - 0 mhos 50 - None None - -
01/18/2017 12:22 Ice Watch 30.0F - 19F - 70 - - - - 0 mhos 52 - None None - -
01/18/2017 12:16 Ice Watch 30.0F - 19F - 55 - - - - 0 mhos 55 - None None - -
01/18/2017 12:12 Ice Watch 30.2F - 19F - 50 - - - - 1 mhos 55 - None None - -
01/18/2017 12:02 Ice Watch 31.6F - 19F - 80 - - - - 1 mhos 61 - None None - -
01/18/2017 12:01 Ice Watch 31.6F - 19F - 80 - - - - 1 mhos 61 - None None - -
01/18/2017 11:51 Ice Watch 29.7F - 19F - 90 - - - - 1 mhos 64 - None None - -
01/18/2017 11:46 Ice Watch 29.7F - 19F - 85 - - - - 1 mhos 67 - None None - -
01/18/2017 11:41 Ice Watch 29.8F - 19F - 90 - - - - 1 mhos 69 - None None - -
01/18/2017 11:31 Ice Watch 29.7F - 19F - 95 - - - - 1 mhos 73 - None None - -
Date/Time
(MST)
Sf
Temp Chem Water Layer Surface Precipitation
Sfc Pvt Sub Frz Factor Pct Dpth DpthThk IcePct Cond Salin FI Type Intens Accum Rate
01/18/2017 11:31 Ice Watch 29.7F - 19F - 95 - - - - 1 mhos 73 - None None - -
01/18/2017 11:21 Ice Watch 29.5F - 19F - 95 - - - - 1 mhos 78 - None None - -
01/18/2017 11:16 Ice Watch 28.9F - 18F - 95 - - - - 1 mhos 79 - None None - -
01/18/2017 11:11 Ice Watch 28.8F - 18F - 95 - - - - 1 mhos 81 - None None - -
01/18/2017 11:01 Ice Watch 28.0F - 18F - 95 - - - - 1 mhos 83 - None None - -
01/18/2017 11:01 Ice Watch 28.0F - 18F - 95 - - - - 1 mhos 83 - None None - -
01/18/2017 10:51 Ice Watch 28.6F - 18F - 95 - - - - 1 mhos 86 - None None - -
01/18/2017 10:46 Ice Watch 27.7F - 18F - 95 - - - - 1 mhos 87 - None None - -
01/18/2017 10:41 Ice Watch 27.7F - 18F - 95 - - - - 1 mhos 89 - None None - -
01/18/2017 10:31 Ice Watch 26.4F - 18F - 95 - - - - 1 mhos 93 - None None - -
01/18/2017 10:31 Ice Watch 26.4F - 18F - 95 - - - - 1 mhos 93 - None None - -
01/18/2017 10:21 Ice Watch 26.2F - 18F - 95 - - - - 1 mhos 94 - None None - -
01/18/2017 10:16 Ice Watch 25.2F - 18F - 95 - - - - 1 mhos 93 - None None - -
01/18/2017 10:11 Ice Watch 25.0F - 18F - 95 - - - - 1 mhos 95 - None None - -
01/18/2017 10:01 Ice Watch 23.2F - 18F - 95 - - - - 1 mhos 93 - None None - -
Date/Time
(MST)
Sf
Temp Chem Water Layer Surface Precipitation
Sfc Pvt Sub Frz Factor Pct Dpth DpthThk IcePct Cond Salin FI Type Intens Accum Rate
01/18/2017 10:01 Ice Watch 23.2F - 18F - 95 - - - - 1 mhos 93 - None None - -
01/18/2017 09:51 Ice Watch 22.3F - 18F - 95 - - - - 1 mhos 93 - None None - -
01/18/2017 09:46 Ice Watch 21.9F - 18F - 95 - - - - 1 mhos 90 - None None - -
01/18/2017 09:41 Ice Watch 21.2F - 18F - 95 - - - - 1 mhos 92 - None None - -
01/18/2017 09:31 Ice Watch 20.1F - 18F - 95 - - - - 1 mhos 90 - None None - -
01/18/2017 09:31 Ice Watch 20.1F - 18F - 95 - - - - 1 mhos 90 - None None - -
01/18/2017 09:21 Ice Watch 19.8F - 18F - 95 - - - - 1 mhos 88 - None None - -
01/18/2017 09:16 Ice Watch 19.9F - 18F - 95 - - - - 1 mhos 87 - None None - -
01/18/2017 09:11 Ice Watch 20.1F - 18F - 95 - - - - 1 mhos 86 - None None - -
01/18/2017 09:01 Ice Watch 19.4F - 18F - 95 - - - - 1 mhos 84 - None None - -
01/18/2017 09:01 Ice Watch 19.4F - 18F - 95 - - - - 1 mhos 84 - None None - -
01/18/2017 08:51 Frost 18.3F - 18F - - - - - - 1 mhos 81 - None None - -
01/18/2017 08:46 Frost 18.3F - 18F - - - - - - 1 mhos 79 - None None - -
01/18/2017 08:41 Frost 18.1F - 18F - - - - - - 1 mhos 77 - None None - -
01/18/2017 08:31 Frost 17.8F - 18F - - - - - - 1 mhos 74 - None None - -
Date/Time
(MST)
Sf
Temp Chem Water Layer Surface Precipitation
Sfc Pvt Sub Frz Factor Pct Dpth DpthThk IcePct Cond Salin FI Type Intens Accum Rate
01/18/2017 08:30 Frost 17.8F - 18F - - - - - - 1 mhos 74 - None None - -
01/18/2017 08:20 Frost 18.0F - 18F - - - - - - 1 mhos 71 - None None - -
01/18/2017 08:16 Frost 17.8F - 18F - - - - - - 1 mhos 68 - None None - -
01/18/2017 08:10 Frost 17.8F - 18F - - - - - - 1 mhos 66 - None None - -
01/18/2017 08:01 Frost 17.4F - 18F - - - - - - 0 mhos 63 - None None - -
01/18/2017 08:00 Frost 17.4F - 18F - - - - - - 0 mhos 63 - None None - -
01/18/2017 07:50 Frost 17.8F - 18F - - - - - - 0 mhos 59 - None None - -
01/18/2017 07:46 Frost 17.8F - 18F - - - - - - 0 mhos 57 - None None - -
01/18/2017 07:40 Frost 17.8F - 18F - - - - - - 0 mhos 55 - None None - -
01/18/2017 07:31 Frost 17.4F - 18F - - - - - - 0 mhos 51 - None None - -
01/18/2017 07:30 Frost 17.4F - 18F - - - - - - 0 mhos 51 - None None - -
01/18/2017 07:20 Frost 17.4F - 18F - - - - - - 0 mhos 47 - None None - -
01/18/2017 07:16 Frost 17.2F - 18F - - - - - - 0 mhos 45 - None None - -
01/18/2017 07:10 Frost 17.4F - 18F - - - - - - 0 mhos 43 - None None - -
01/18/2017 07:01 Frost 17.2F - 18F - - - - - - 0 mhos 39 - None None - -
Date/Time
(MST)
Sf
Temp Chem Water Layer Surface Precipitation
Sfc Pvt Sub Frz Factor Pct Dpth DpthThk IcePct Cond Salin FI Type Intens Accum Rate
01/18/2017 07:00 Frost 17.2F - 18F - - - - - - 0 mhos 39 - None None - -
01/18/2017 06:50 Frost 17.1F - 18F - - - - - - 0 mhos 34 - None None - -
01/18/2017 06:46 Frost 17.1F - 18F - - - - - - 0 mhos 32 - None None - -
01/18/2017 06:40 Frost 17.1F - 18F - - - - - - 0 mhos 30 - None None - -
01/18/2017 06:31 Ice Watch 17.1F - 18F - 95 - - - - 0 mhos 26 - None None - -
01/18/2017 06:30 Ice Watch 17.1F - 18F - 95 - - - - 0 mhos 26 - None None - -
01/18/2017 06:20 Ice Watch 16.7F - 18F - 95 - - - - 0 mhos 22 - None None - -
01/18/2017 06:16 Ice Watch 16.5F - 18F - 95 - - - - 0 mhos 21 - None None - -
01/18/2017 06:10 Ice Watch 16.3F - 18F - 90 - - - - 0 mhos 20 - None None - -
01/18/2017 06:01 Ice Watch 16.2F - 18F - 90 - - - - 0 mhos 18 - None None - -
01/18/2017 06:00 Ice Watch 16.2F - 18F - 90 - - - - 0 mhos 18 - None None - -
01/18/2017 05:50 Ice Watch 15.4F - 18F - 85 - - - - 0 mhos 15 - None None - -
01/18/2017 05:46 Ice Watch 15.4F - 18F - 85 - - - - 0 mhos 15 - None None - -
01/18/2017 05:40 Ice Watch 15.6F - 18F - 80 - - - - 0 mhos 14 - None None - -
01/18/2017 05:31 Ice Watch 15.6F - 18F - 75 - - - - 0 mhos 12 - None None - -
Date/Time
(MST)
Sf
Temp Chem Water Layer Surface Precipitation
Sfc Pvt Sub Frz Factor Pct Dpth DpthThk IcePct Cond Salin FI Type Intens Accum Rate
01/18/2017 05:30 Ice Watch 15.4F - 18F - 75 - - - - 0 mhos 11 - None None - -
01/18/2017 05:20 Ice Watch 15.6F - 18F - 75 - - - - 0 mhos 10 - None None - -
01/18/2017 05:16 Ice Watch 15.8F - 18F - 75 - - - - 0 mhos 10 - None None - -
01/18/2017 05:09 Ice Watch 15.4F - 18F - 75 - - - - 0 mhos 9 - None None - -
01/18/2017 05:01 Ice Watch 15.1F - 18F - 70 - - - - 0 mhos 8 - None None - -
01/18/2017 04:59 Ice Watch 15.1F - 18F - 65 - - - - 0 mhos 8 - None None - -
01/18/2017 04:49 Ice Watch 15.3F - 18F - 65 - - - - 0 mhos 8 - None None - -
01/18/2017 04:46 Ice Watch 15.3F - 18F - 65 - - - - 0 mhos 8 - None None - -
01/18/2017 04:39 Ice Watch 15.3F - 18F - 65 - - - - 0 mhos 7 - None None - -
01/18/2017 04:31 Frost 15.3F - 18F - - - - - - 0 mhos 7 - None None - -
01/18/2017 04:29 Frost 15.3F - 18F - - - - - - 0 mhos 7 - None None - -
01/18/2017 04:19 Ice Watch 15.4F - 18F - 60 - - - - 0 mhos 6 - None None - -
01/18/2017 04:16 Ice Watch 15.4F - 18F - 55 - - - - 0 mhos 6 - None None - -
01/18/2017 04:09 Ice Watch 15.8F - 18F - 55 - - - - 0 mhos 6 - None None - -
01/18/2017 04:01 Ice Watch 15.3F - 18F - 50 - - - - 0 mhos 5 - None None - -
Date/Time
(MST)
Sf
Temp Chem Water Layer Surface Precipitation
Sfc Pvt Sub Frz Factor Pct Dpth DpthThk IcePct Cond Salin FI Type Intens Accum Rate
01/18/2017 03:59 Ice Watch 15.1F - 18F - 50 - - - - 0 mhos 5 - None None - -
01/18/2017 03:49 Frost 14.9F - 18F - - - - - - 0 mhos 5 - None None - -
01/18/2017 03:46 Frost 15.1F - 18F - - - - - - 0 mhos 5 - None None - -
01/18/2017 03:39 Frost 15.4F - 18F - - - - - - 0 mhos 5 - None None - -
01/18/2017 03:31 Frost 16.2F - 18F - - - - - - 0 mhos 5 - None None - -
01/18/2017 03:29 Frost 16.2F - 18F - - - - - - 0 mhos 4 - None None - -
01/18/2017 03:19 Frost 16.2F - 18F - - - - - - 0 mhos 4 - None None - -
01/18/2017 03:16 Ice Watch 16.2F - 18F - 30 - - - - 0 mhos 4 - None None - -
01/18/2017 03:09 Ice Watch 16.2F - 18F - 25 - - - - 0 mhos 4 - None None - -
01/18/2017 03:01 Ice Watch 16.2F - 18F - 20 - - - - 0 mhos 4 - None None - -
01/18/2017 02:59 Ice Watch 16.2F - 18F - 20 - - - - 0 mhos 4 - None None - -
01/18/2017 02:49 Ice Watch 15.8F - 18F - 20 - - - - 0 mhos 3 - None None - -
01/18/2017 02:46 Ice Watch 15.8F - 18F - 15 - - - - 0 mhos 3 - None None - -
01/18/2017 02:39 Ice Watch 15.4F - 18F - 10 - - - - 0 mhos 3 - None None - -
01/18/2017 02:31 Ice Watch 15.3F - 18F - 10 - - - - 0 mhos 3 - None None - -
Date/Time
(MST)
Sf
Temp Chem Water Layer Surface Precipitation
Sfc Pvt Sub Frz Factor Pct Dpth DpthThk IcePct Cond Salin FI Type Intens Accum Rate
01/18/2017 02:29 Ice Watch 15.1F - 18F - 10 - - - - 0 mhos 3 - None None - -
01/18/2017 02:19 Ice Watch 15.3F - 18F - 10 - - - - 0 mhos 3 - None None - -
01/18/2017 02:16 Ice Watch 15.3F - 18F - 5 - - - - 0 mhos 3 - None None - -
01/18/2017 02:09 Ice Watch 14.9F - 18F - 5 - - - - 0 mhos 3 - None None - -
01/18/2017 02:01 Ice Watch 14.5F - 18F - 5 - - - - 0 mhos 3 - None None - -
01/18/2017 01:59 Ice Watch 14.4F - 18F - 5 - - - - 0 mhos 3 - None None - -
01/18/2017 01:49 Ice Watch 13.6F - 18F - 5 - - - - 0 mhos 2 - None None - -
01/18/2017 01:46 Ice Watch 13.6F - 18F - 5 - - - - 0 mhos 2 - None None - -
01/18/2017 01:39 Ice Watch 13.3F - 18F - 5 - - - - 0 mhos 2 - None None - -
01/18/2017 01:31 Ice Watch 13.3F - 18F - 5 - - - - 0 mhos 2 - None None - -
01/18/2017 01:28 Ice Watch 13.1F - 18F - 5 - - - - 0 mhos 2 - None None - -
01/18/2017 01:18 Ice Watch 12.0F - 18F - 5 - - - - 0 mhos 2 - None None - -
01/18/2017 01:16 Ice Watch 11.8F - 18F - 5 - - - - 0 mhos 2 - None None - -
01/18/2017 01:08 Ice Watch 11.3F - 18F - 5 - - - - 0 mhos 2 - None None - -
01/18/2017 01:01 Ice Watch 11.3F - 18F - 5 - - - - 0 mhos 2 - None None - -
Date/Time
(MST)
Sf
Temp Chem Water Layer Surface Precipitation
Sfc Pvt Sub Frz Factor Pct Dpth DpthThk IcePct Cond Salin FI Type Intens Accum Rate
01/18/2017 00:58 Ice Watch 11.3F - 18F - 5 - - - - 0 mhos 2 - None None - -
01/18/2017 00:48 Ice Watch 11.3F - 18F - 5 - - - - 0 mhos 2 - None None - -
01/18/2017 00:47 Ice Watch 11.3F - 18F - 5 - - - - 0 mhos 2 - None None - -
01/18/2017 00:38 Ice Watch 11.3F - 18F - 5 - - - - 0 mhos 2 - None None - -
01/18/2017 00:31 Ice Watch 11.5F - 18F - 5 - - - - 0 mhos 2 - None None - -
01/18/2017 00:28 Ice Watch 11.5F - 18F - 5 - - - - 0 mhos 2 - None None - -
01/18/2017 00:18 Ice Watch 11.7F - 18F - 5 - - - - 0 mhos 2 - None None - -
01/18/2017 00:16 Ice Watch 11.7F - 18F - 5 - - - - 0 mhos 2 - None None - -
01/18/2017 00:08 Ice Watch 11.8F - 18F - 5 - - - - 0 mhos 2 - None None - -
01/18/2017 00:01 Ice Watch 12.0F - 18F - 5 - - - - 0 mhos 2 - None None - -
01/17/2017 23:58 Ice Watch 12.2F - 18F - 5 - - - - 0 mhos 2 - None None - -
01/17/2017 23:48 Ice Watch 12.4F - 18F - 5 - - - - 0 mhos 2 - None None - -
01/17/2017 23:46 Ice Watch 12.6F - 18F - 5 - - - - 0 mhos 2 - None None - -
01/17/2017 23:38 Ice Watch 13.3F - 18F - 5 - - - - 0 mhos 2 - None None - -
01/17/2017 23:31 Ice Watch 13.3F - 18F - 5 - - - - 0 mhos 2 - None None - -
Date/Time
(MST)
Sf
Temp Chem Water Layer Surface Precipitation
Sfc Pvt Sub Frz Factor Pct Dpth DpthThk IcePct Cond Salin FI Type Intens Accum Rate
01/17/2017 23:28 Ice Watch 13.5F - 18F - 5 - - - - 0 mhos 2 - None None - -
01/17/2017 23:18 Ice Watch 12.6F - 18F - 5 - - - - 0 mhos 2 - None None - -
01/17/2017 23:16 Ice Watch 12.2F - 18F - 5 - - - - 0 mhos 2 - None None - -
01/17/2017 23:08 Ice Watch 11.7F - 18F - 5 - - - - 0 mhos 2 - None None - -
01/17/2017 23:01 Ice Watch 11.8F - 18F - 5 - - - - 0 mhos 2 - None None - -
01/17/2017 22:58 Ice Watch 11.8F - 18F - 5 - - - - 0 mhos 2 - None None - -
01/17/2017 22:48 Ice Watch 11.8F - 18F - 5 - - - - 0 mhos 2 - None None - -
01/17/2017 22:46 Ice Watch 11.8F - 18F - 5 - - - - 0 mhos 2 - None None - -
01/17/2017 22:38 Ice Watch 12.0F - 18F - 5 - - - - 0 mhos 2 - None None - -
01/17/2017 22:31 Ice Watch 12.0F - 18F - 10 - - - - 0 mhos 2 - None None - -
01/17/2017 22:28 Ice Watch 12.2F - 18F - 10 - - - - 0 mhos 2 - None None - -
01/17/2017 22:18 Ice Watch 12.2F - 18F - 10 - - - - 0 mhos 2 - None None - -
01/17/2017 22:16 Ice Watch 12.2F - 18F - 10 - - - - 0 mhos 2 - None None - -
01/17/2017 22:07 Ice Watch 12.2F - 18F - 15 - - - - 0 mhos 2 - None None - -
01/17/2017 22:01 Ice Watch 12.4F - 18F - 15 - - - - 0 mhos 2 - None None - -
Date/Time
(MST)
Sf
Temp Chem Water Layer Surface Precipitation
Sfc Pvt Sub Frz Factor Pct Dpth DpthThk IcePct Cond Salin FI Type Intens Accum Rate
01/17/2017 21:57 Ice Watch 12.4F - 18F - 15 - - - - 0 mhos 2 - None None - -
01/17/2017 21:47 Ice Watch 12.6F - 18F - 15 - - - - 0 mhos 2 - None None - -
01/17/2017 21:46 Ice Watch 12.7F - 18F - 15 - - - - 0 mhos 2 - None None - -
01/17/2017 21:37 Ice Watch 12.7F - 18F - 15 - - - - 0 mhos 2 - None None - -
01/17/2017 21:31 Ice Watch 12.9F - 18F - 15 - - - - 0 mhos 2 - None None - -
01/17/2017 21:27 Ice Watch 13.1F - 18F - 15 - - - - 0 mhos 2 - None None - -
01/17/2017 21:17 Ice Watch 13.1F - 18F - 20 - - - - 0 mhos 2 - None None - -
01/17/2017 21:16 Ice Watch 13.1F - 18F - 20 - - - - 0 mhos 2 - None None - -
01/17/2017 21:07 Ice Watch 13.1F - 18F - 20 - - - - 0 mhos 2 - None None - -
01/17/2017 21:01 Ice Watch 13.3F - 18F - 20 - - - - 0 mhos 2 - None None - -
01/17/2017 20:57 Ice Watch 13.3F - 18F - 20 - - - - 0 mhos 2 - None None - -
01/17/2017 20:47 Ice Watch 13.5F - 18F - 25 - - - - 0 mhos 2 - None None - -
01/17/2017 20:46 Ice Watch 13.5F - 18F - 25 - - - - 0 mhos 2 - None None - -
01/17/2017 20:37 Ice Watch 13.8F - 18F - 20 - - - - 0 mhos 2 - None None - -
01/17/2017 20:31 Ice Watch 14.0F - 18F - 25 - - - - 0 mhos 2 - None None - -
Date/Time
(MST)
Sf
Temp Chem Water Layer Surface Precipitation
Sfc Pvt Sub Frz Factor Pct Dpth DpthThk IcePct Cond Salin FI Type Intens Accum Rate
01/17/2017 20:27 Ice Watch 14.0F - 18F - 25 - - - - 0 mhos 2 - None None - -
01/17/2017 20:17 Ice Watch 14.2F - 18F - 25 - - - - 0 mhos 2 - None None - -
01/17/2017 20:16 Ice Watch 14.2F - 18F - 25 - - - - 0 mhos 2 - None None - -
01/17/2017 20:07 Ice Watch 14.5F - 18F - 30 - - - - 0 mhos 2 - None None - -
01/17/2017 20:01 Ice Watch 14.7F - 18F - 35 - - - - 0 mhos 2 - None None - -
01/17/2017 19:57 Ice Watch 14.9F - 18F - 35 - - - - 0 mhos 2 - None None - -
01/17/2017 19:47 Ice Watch 15.3F - 18F - 35 - - - - 0 mhos 2 - None None - -
01/17/2017 19:46 Ice Watch 15.3F - 18F - 40 - - - - 0 mhos 2 - None None - -
01/17/2017 19:37 Ice Watch 15.4F - 18F - 35 - - - - 0 mhos 2 - None None - -
01/17/2017 19:31 Ice Watch 15.6F - 18F - 35 - - - - 0 mhos 2 - None None - -
01/17/2017 19:27 Ice Watch 15.8F - 18F - 35 - - - - 0 mhos 2 - None None - -
01/17/2017 19:17 Ice Watch 16.2F - 18F - 35 - - - - 0 mhos 2 - None None - -
01/17/2017 19:16 Ice Watch 16.2F - 18F - 40 - - - - 0 mhos 2 - None None - -
Change End Date:

Copyright © 1998-2015 Vaisala, Inc.
All Rights Reserved
Send comments about the data to:
SCAN Web ® is a registered trademark of Vaisala, Inc.
SCAN Web Version 6.0